sensor_id;sensor_type;location;lat;lon;timestamp;P1;durP1;ratioP1;P2;durP2;ratioP2
10059;SDS011;5069;49.306;8.636;2022-12-18T00:02:27;50.57;;;23.70;;
10059;SDS011;5069;49.306;8.636;2022-12-18T00:05:29;52.50;;;22.70;;
10059;SDS011;5069;49.306;8.636;2022-12-18T00:08:30;57.83;;;25.40;;
10059;SDS011;5069;49.306;8.636;2022-12-18T00:11:33;47.60;;;22.63;;
10059;SDS011;5069;49.306;8.636;2022-12-18T00:14:34;53.37;;;22.73;;
10059;SDS011;5069;49.306;8.636;2022-12-18T00:17:36;48.97;;;23.03;;
10059;SDS011;5069;49.306;8.636;2022-12-18T00:20:38;54.13;;;24.90;;
10059;SDS011;5069;49.306;8.636;2022-12-18T00:23:41;62.60;;;24.73;;
10059;SDS011;5069;49.306;8.636;2022-12-18T00:26:44;63.37;;;25.47;;
10059;SDS011;5069;49.306;8.636;2022-12-18T00:29:46;60.57;;;23.20;;
10059;SDS011;5069;49.306;8.636;2022-12-18T00:32:49;51.77;;;22.00;;
10059;SDS011;5069;49.306;8.636;2022-12-18T00:35:51;53.93;;;23.13;;
10059;SDS011;5069;49.306;8.636;2022-12-18T00:38:52;51.43;;;21.77;;
10059;SDS011;5069;49.306;8.636;2022-12-18T00:41:55;49.17;;;21.40;;
10059;SDS011;5069;49.306;8.636;2022-12-18T00:45:15;46.20;;;21.40;;
10059;SDS011;5069;49.306;8.636;2022-12-18T00:48:16;57.47;;;22.00;;
10059;SDS011;5069;49.306;8.636;2022-12-18T00:51:18;52.87;;;22.83;;
10059;SDS011;5069;49.306;8.636;2022-12-18T00:54:19;50.47;;;23.37;;
10059;SDS011;5069;49.306;8.636;2022-12-18T00:57:21;50.27;;;22.13;;
10059;SDS011;5069;49.306;8.636;2022-12-18T01:00:22;51.83;;;22.80;;
10059;SDS011;5069;49.306;8.636;2022-12-18T01:03:24;48.17;;;21.97;;
10059;SDS011;5069;49.306;8.636;2022-12-18T01:06:25;50.27;;;23.13;;
10059;SDS011;5069;49.306;8.636;2022-12-18T01:09:27;46.90;;;21.23;;
10059;SDS011;5069;49.306;8.636;2022-12-18T01:12:28;48.10;;;21.27;;
10059;SDS011;5069;49.306;8.636;2022-12-18T01:15:29;55.50;;;21.83;;
10059;SDS011;5069;49.306;8.636;2022-12-18T01:18:31;48.60;;;20.90;;
10059;SDS011;5069;49.306;8.636;2022-12-18T01:21:33;46.97;;;20.63;;
10059;SDS011;5069;49.306;8.636;2022-12-18T01:24:37;46.23;;;21.13;;
10059;SDS011;5069;49.306;8.636;2022-12-18T01:27:39;43.80;;;21.83;;
10059;SDS011;5069;49.306;8.636;2022-12-18T01:30:40;51.63;;;22.67;;
10059;SDS011;5069;49.306;8.636;2022-12-18T01:33:42;46.00;;;21.43;;
10059;SDS011;5069;49.306;8.636;2022-12-18T01:36:44;50.03;;;22.10;;
10059;SDS011;5069;49.306;8.636;2022-12-18T01:39:45;51.40;;;20.90;;
10059;SDS011;5069;49.306;8.636;2022-12-18T01:42:53;51.03;;;22.27;;
10059;SDS011;5069;49.306;8.636;2022-12-18T01:45:55;47.80;;;22.43;;
10059;SDS011;5069;49.306;8.636;2022-12-18T01:49:01;48.27;;;21.83;;
10059;SDS011;5069;49.306;8.636;2022-12-18T01:52:03;45.50;;;21.70;;
10059;SDS011;5069;49.306;8.636;2022-12-18T01:55:05;45.10;;;22.03;;
10059;SDS011;5069;49.306;8.636;2022-12-18T01:58:07;51.37;;;22.27;;
10059;SDS011;5069;49.306;8.636;2022-12-18T02:01:09;50.97;;;22.33;;
10059;SDS011;5069;49.306;8.636;2022-12-18T02:04:29;50.40;;;23.17;;
10059;SDS011;5069;49.306;8.636;2022-12-18T02:07:54;48.70;;;21.37;;
10059;SDS011;5069;49.306;8.636;2022-12-18T02:14:49;52.60;;;23.30;;
10059;SDS011;5069;49.306;8.636;2022-12-18T02:18:00;52.83;;;21.90;;
10059;SDS011;5069;49.306;8.636;2022-12-18T02:21:12;46.73;;;21.67;;
10059;SDS011;5069;49.306;8.636;2022-12-18T02:27:41;46.27;;;20.77;;
10059;SDS011;5069;49.306;8.636;2022-12-18T02:30:47;49.30;;;21.13;;
10059;SDS011;5069;49.306;8.636;2022-12-18T02:33:54;46.30;;;20.40;;
10059;SDS011;5069;49.306;8.636;2022-12-18T02:37:00;48.67;;;21.83;;
10059;SDS011;5069;49.306;8.636;2022-12-18T02:40:07;46.03;;;22.03;;
10059;SDS011;5069;49.306;8.636;2022-12-18T02:43:13;46.57;;;21.00;;
10059;SDS011;5069;49.306;8.636;2022-12-18T02:50:25;48.23;;;19.47;;
10059;SDS011;5069;49.306;8.636;2022-12-18T02:56:49;46.80;;;19.97;;
10059;SDS011;5069;49.306;8.636;2022-12-18T03:00:10;46.73;;;18.77;;
10059;SDS011;5069;49.306;8.636;2022-12-18T03:03:18;48.83;;;19.63;;
10059;SDS011;5069;49.306;8.636;2022-12-18T03:06:39;47.33;;;19.63;;
10059;SDS011;5069;49.306;8.636;2022-12-18T03:09:46;47.20;;;20.33;;
10059;SDS011;5069;49.306;8.636;2022-12-18T03:12:56;52.43;;;20.57;;
10059;SDS011;5069;49.306;8.636;2022-12-18T03:16:06;47.87;;;20.37;;
10059;SDS011;5069;49.306;8.636;2022-12-18T03:19:14;54.47;;;19.10;;
10059;SDS011;5069;49.306;8.636;2022-12-18T03:22:18;41.40;;;18.93;;
10059;SDS011;5069;49.306;8.636;2022-12-18T03:25:24;48.80;;;21.07;;
10059;SDS011;5069;49.306;8.636;2022-12-18T03:28:28;42.07;;;18.97;;
10059;SDS011;5069;49.306;8.636;2022-12-18T03:31:37;44.73;;;19.20;;
10059;SDS011;5069;49.306;8.636;2022-12-18T03:34:43;42.87;;;18.33;;
10059;SDS011;5069;49.306;8.636;2022-12-18T03:37:50;39.47;;;18.33;;
10059;SDS011;5069;49.306;8.636;2022-12-18T03:44:29;42.20;;;18.10;;
10059;SDS011;5069;49.306;8.636;2022-12-18T03:51:07;41.30;;;18.23;;
10059;SDS011;5069;49.306;8.636;2022-12-18T03:54:16;41.20;;;19.30;;
10059;SDS011;5069;49.306;8.636;2022-12-18T03:57:27;43.97;;;19.17;;
10059;SDS011;5069;49.306;8.636;2022-12-18T04:00:31;40.60;;;18.07;;
10059;SDS011;5069;49.306;8.636;2022-12-18T04:03:40;40.57;;;17.90;;
10059;SDS011;5069;49.306;8.636;2022-12-18T04:06:45;42.27;;;19.67;;
10059;SDS011;5069;49.306;8.636;2022-12-18T04:09:52;38.67;;;18.10;;
10059;SDS011;5069;49.306;8.636;2022-12-18T04:12:58;40.37;;;18.23;;
10059;SDS011;5069;49.306;8.636;2022-12-18T04:16:01;38.53;;;18.60;;
10059;SDS011;5069;49.306;8.636;2022-12-18T04:19:03;41.10;;;17.83;;
10059;SDS011;5069;49.306;8.636;2022-12-18T04:22:11;39.60;;;18.57;;
10059;SDS011;5069;49.306;8.636;2022-12-18T04:25:17;51.17;;;18.43;;
10059;SDS011;5069;49.306;8.636;2022-12-18T04:28:38;42.33;;;18.60;;
10059;SDS011;5069;49.306;8.636;2022-12-18T04:31:40;40.07;;;18.27;;
10059;SDS011;5069;49.306;8.636;2022-12-18T04:34:43;34.67;;;16.23;;
10059;SDS011;5069;49.306;8.636;2022-12-18T04:37:44;40.80;;;18.47;;
10059;SDS011;5069;49.306;8.636;2022-12-18T04:40:46;41.53;;;17.93;;
10059;SDS011;5069;49.306;8.636;2022-12-18T04:43:55;41.37;;;17.67;;
10059;SDS011;5069;49.306;8.636;2022-12-18T04:46:57;44.17;;;20.47;;
10059;SDS011;5069;49.306;8.636;2022-12-18T04:49:58;38.97;;;17.70;;
10059;SDS011;5069;49.306;8.636;2022-12-18T04:52:59;45.27;;;20.07;;
10059;SDS011;5069;49.306;8.636;2022-12-18T04:56:02;36.23;;;18.30;;
10059;SDS011;5069;49.306;8.636;2022-12-18T04:59:14;42.00;;;17.97;;
10059;SDS011;5069;49.306;8.636;2022-12-18T05:02:15;42.53;;;18.63;;
10059;SDS011;5069;49.306;8.636;2022-12-18T05:05:17;44.33;;;19.07;;
10059;SDS011;5069;49.306;8.636;2022-12-18T05:08:19;38.37;;;19.10;;
10059;SDS011;5069;49.306;8.636;2022-12-18T05:11:20;38.50;;;18.70;;
10059;SDS011;5069;49.306;8.636;2022-12-18T05:14:22;39.17;;;17.37;;
10059;SDS011;5069;49.306;8.636;2022-12-18T05:17:24;36.33;;;17.33;;
10059;SDS011;5069;49.306;8.636;2022-12-18T05:20:26;39.83;;;19.33;;
10059;SDS011;5069;49.306;8.636;2022-12-18T05:23:28;41.17;;;18.47;;
10059;SDS011;5069;49.306;8.636;2022-12-18T05:26:30;36.87;;;17.93;;
10059;SDS011;5069;49.306;8.636;2022-12-18T05:29:32;39.93;;;18.83;;
10059;SDS011;5069;49.306;8.636;2022-12-18T05:32:33;39.97;;;18.23;;
10059;SDS011;5069;49.306;8.636;2022-12-18T05:35:35;40.33;;;18.37;;
10059;SDS011;5069;49.306;8.636;2022-12-18T05:38:37;42.77;;;19.33;;
10059;SDS011;5069;49.306;8.636;2022-12-18T05:41:39;38.43;;;20.00;;
10059;SDS011;5069;49.306;8.636;2022-12-18T05:44:41;39.77;;;20.63;;
10059;SDS011;5069;49.306;8.636;2022-12-18T05:47:44;39.60;;;21.63;;
10059;SDS011;5069;49.306;8.636;2022-12-18T05:50:46;42.33;;;20.87;;
10059;SDS011;5069;49.306;8.636;2022-12-18T05:53:49;38.27;;;21.23;;
10059;SDS011;5069;49.306;8.636;2022-12-18T05:56:50;43.70;;;22.40;;
10059;SDS011;5069;49.306;8.636;2022-12-18T05:59:52;41.43;;;22.77;;
10059;SDS011;5069;49.306;8.636;2022-12-18T06:02:53;41.83;;;22.50;;
10059;SDS011;5069;49.306;8.636;2022-12-18T06:05:55;37.20;;;20.27;;
10059;SDS011;5069;49.306;8.636;2022-12-18T06:08:56;38.80;;;20.73;;
10059;SDS011;5069;49.306;8.636;2022-12-18T06:11:58;41.60;;;21.93;;
10059;SDS011;5069;49.306;8.636;2022-12-18T06:15:00;38.13;;;20.87;;
10059;SDS011;5069;49.306;8.636;2022-12-18T06:18:02;43.27;;;21.87;;
10059;SDS011;5069;49.306;8.636;2022-12-18T06:21:03;43.37;;;22.53;;
10059;SDS011;5069;49.306;8.636;2022-12-18T06:24:05;40.97;;;22.43;;
10059;SDS011;5069;49.306;8.636;2022-12-18T06:27:07;40.43;;;21.43;;
10059;SDS011;5069;49.306;8.636;2022-12-18T06:30:09;39.87;;;21.53;;
10059;SDS011;5069;49.306;8.636;2022-12-18T06:33:11;42.20;;;21.63;;
10059;SDS011;5069;49.306;8.636;2022-12-18T06:36:13;44.57;;;23.43;;
10059;SDS011;5069;49.306;8.636;2022-12-18T06:39:15;45.87;;;23.30;;
10059;SDS011;5069;49.306;8.636;2022-12-18T06:42:16;51.07;;;24.13;;
10059;SDS011;5069;49.306;8.636;2022-12-18T06:45:18;43.50;;;22.60;;
10059;SDS011;5069;49.306;8.636;2022-12-18T06:48:19;44.00;;;23.13;;
10059;SDS011;5069;49.306;8.636;2022-12-18T06:51:22;40.50;;;22.23;;
10059;SDS011;5069;49.306;8.636;2022-12-18T06:54:24;38.27;;;21.20;;
10059;SDS011;5069;49.306;8.636;2022-12-18T06:57:26;43.67;;;22.97;;
10059;SDS011;5069;49.306;8.636;2022-12-18T07:00:27;39.90;;;22.27;;
10059;SDS011;5069;49.306;8.636;2022-12-18T07:03:29;40.27;;;21.53;;
10059;SDS011;5069;49.306;8.636;2022-12-18T07:06:30;39.30;;;21.23;;
10059;SDS011;5069;49.306;8.636;2022-12-18T07:09:32;37.87;;;20.47;;
10059;SDS011;5069;49.306;8.636;2022-12-18T07:12:33;39.80;;;22.70;;
10059;SDS011;5069;49.306;8.636;2022-12-18T07:15:36;39.50;;;21.67;;
10059;SDS011;5069;49.306;8.636;2022-12-18T07:18:37;42.50;;;21.87;;
10059;SDS011;5069;49.306;8.636;2022-12-18T07:21:39;40.43;;;21.90;;
10059;SDS011;5069;49.306;8.636;2022-12-18T07:24:40;38.73;;;21.63;;
10059;SDS011;5069;49.306;8.636;2022-12-18T07:27:42;40.67;;;20.40;;
10059;SDS011;5069;49.306;8.636;2022-12-18T07:30:44;38.87;;;20.40;;
10059;SDS011;5069;49.306;8.636;2022-12-18T07:33:45;36.47;;;19.37;;
10059;SDS011;5069;49.306;8.636;2022-12-18T07:36:47;41.33;;;20.47;;
10059;SDS011;5069;49.306;8.636;2022-12-18T07:39:48;38.23;;;20.90;;
10059;SDS011;5069;49.306;8.636;2022-12-18T07:42:51;41.43;;;20.97;;
10059;SDS011;5069;49.306;8.636;2022-12-18T07:45:53;38.60;;;19.90;;
10059;SDS011;5069;49.306;8.636;2022-12-18T07:48:54;39.80;;;21.37;;
10059;SDS011;5069;49.306;8.636;2022-12-18T07:51:56;37.23;;;20.50;;
10059;SDS011;5069;49.306;8.636;2022-12-18T07:54:58;39.53;;;20.27;;
10059;SDS011;5069;49.306;8.636;2022-12-18T07:58:00;40.73;;;21.50;;
10059;SDS011;5069;49.306;8.636;2022-12-18T08:01:04;38.77;;;20.13;;
10059;SDS011;5069;49.306;8.636;2022-12-18T08:04:11;39.37;;;19.63;;
10059;SDS011;5069;49.306;8.636;2022-12-18T08:07:13;35.93;;;19.67;;
10059;SDS011;5069;49.306;8.636;2022-12-18T08:10:14;41.13;;;21.27;;
10059;SDS011;5069;49.306;8.636;2022-12-18T08:13:16;40.20;;;20.37;;
10059;SDS011;5069;49.306;8.636;2022-12-18T08:16:18;37.83;;;20.97;;
10059;SDS011;5069;49.306;8.636;2022-12-18T08:19:20;40.03;;;20.97;;
10059;SDS011;5069;49.306;8.636;2022-12-18T08:22:22;38.03;;;19.83;;
10059;SDS011;5069;49.306;8.636;2022-12-18T08:25:23;39.60;;;21.30;;
10059;SDS011;5069;49.306;8.636;2022-12-18T08:28:25;38.13;;;20.60;;
10059;SDS011;5069;49.306;8.636;2022-12-18T08:31:27;41.30;;;20.60;;
10059;SDS011;5069;49.306;8.636;2022-12-18T08:34:30;41.03;;;20.53;;
10059;SDS011;5069;49.306;8.636;2022-12-18T08:37:32;40.00;;;20.60;;
10059;SDS011;5069;49.306;8.636;2022-12-18T08:40:33;41.50;;;20.27;;
10059;SDS011;5069;49.306;8.636;2022-12-18T08:43:35;36.53;;;20.07;;
10059;SDS011;5069;49.306;8.636;2022-12-18T08:47:03;39.30;;;20.43;;
10059;SDS011;5069;49.306;8.636;2022-12-18T08:50:05;36.87;;;19.73;;
10059;SDS011;5069;49.306;8.636;2022-12-18T08:53:07;38.53;;;19.97;;
10059;SDS011;5069;49.306;8.636;2022-12-18T08:56:08;38.80;;;19.20;;
10059;SDS011;5069;49.306;8.636;2022-12-18T08:59:10;36.57;;;20.23;;
10059;SDS011;5069;49.306;8.636;2022-12-18T09:02:19;38.67;;;20.00;;
10059;SDS011;5069;49.306;8.636;2022-12-18T09:05:21;41.33;;;19.57;;
10059;SDS011;5069;49.306;8.636;2022-12-18T09:08:23;36.57;;;19.33;;
10059;SDS011;5069;49.306;8.636;2022-12-18T09:11:25;43.60;;;21.70;;
10059;SDS011;5069;49.306;8.636;2022-12-18T09:14:29;38.50;;;19.10;;
10059;SDS011;5069;49.306;8.636;2022-12-18T09:17:30;33.03;;;18.47;;
10059;SDS011;5069;49.306;8.636;2022-12-18T09:20:32;37.93;;;19.63;;
10059;SDS011;5069;49.306;8.636;2022-12-18T09:23:33;40.80;;;19.97;;
10059;SDS011;5069;49.306;8.636;2022-12-18T09:26:35;37.80;;;18.93;;
10059;SDS011;5069;49.306;8.636;2022-12-18T09:29:37;42.47;;;21.87;;
10059;SDS011;5069;49.306;8.636;2022-12-18T09:32:39;40.30;;;20.17;;
10059;SDS011;5069;49.306;8.636;2022-12-18T09:35:41;40.40;;;20.20;;
10059;SDS011;5069;49.306;8.636;2022-12-18T09:38:44;42.70;;;20.33;;
10059;SDS011;5069;49.306;8.636;2022-12-18T09:41:53;39.00;;;20.17;;
10059;SDS011;5069;49.306;8.636;2022-12-18T09:44:57;40.37;;;19.33;;
10059;SDS011;5069;49.306;8.636;2022-12-18T09:48:00;36.47;;;19.20;;
10059;SDS011;5069;49.306;8.636;2022-12-18T09:51:10;41.27;;;19.73;;
10059;SDS011;5069;49.306;8.636;2022-12-18T09:54:21;38.17;;;20.03;;
10059;SDS011;5069;49.306;8.636;2022-12-18T09:57:28;36.17;;;19.40;;
10059;SDS011;5069;49.306;8.636;2022-12-18T10:00:32;37.53;;;19.43;;
10059;SDS011;5069;49.306;8.636;2022-12-18T10:03:34;43.20;;;20.97;;
10059;SDS011;5069;49.306;8.636;2022-12-18T10:10:08;39.33;;;20.23;;
10059;SDS011;5069;49.306;8.636;2022-12-18T10:13:45;34.80;;;19.60;;
10059;SDS011;5069;49.306;8.636;2022-12-18T10:23:48;37.43;;;19.17;;
10059;SDS011;5069;49.306;8.636;2022-12-18T10:26:55;38.60;;;20.07;;
10059;SDS011;5069;49.306;8.636;2022-12-18T10:30:14;42.67;;;21.27;;
10059;SDS011;5069;49.306;8.636;2022-12-18T10:33:23;42.20;;;21.07;;
10059;SDS011;5069;49.306;8.636;2022-12-18T10:36:25;37.20;;;19.80;;
10059;SDS011;5069;49.306;8.636;2022-12-18T10:39:27;39.03;;;20.63;;
10059;SDS011;5069;49.306;8.636;2022-12-18T10:42:28;44.30;;;21.13;;
10059;SDS011;5069;49.306;8.636;2022-12-18T10:45:30;43.77;;;22.63;;
10059;SDS011;5069;49.306;8.636;2022-12-18T10:48:31;38.20;;;18.90;;
10059;SDS011;5069;49.306;8.636;2022-12-18T10:51:36;40.27;;;20.47;;
10059;SDS011;5069;49.306;8.636;2022-12-18T10:54:38;41.10;;;21.80;;
10059;SDS011;5069;49.306;8.636;2022-12-18T10:57:40;42.90;;;21.03;;
10059;SDS011;5069;49.306;8.636;2022-12-18T11:00:42;39.63;;;20.47;;
10059;SDS011;5069;49.306;8.636;2022-12-18T11:03:45;37.90;;;20.57;;
10059;SDS011;5069;49.306;8.636;2022-12-18T11:10:00;40.37;;;21.93;;
10059;SDS011;5069;49.306;8.636;2022-12-18T11:13:09;39.70;;;21.03;;
10059;SDS011;5069;49.306;8.636;2022-12-18T11:16:18;39.40;;;21.17;;
10059;SDS011;5069;49.306;8.636;2022-12-18T11:19:23;39.63;;;21.17;;
10059;SDS011;5069;49.306;8.636;2022-12-18T11:22:35;40.70;;;22.13;;
10059;SDS011;5069;49.306;8.636;2022-12-18T11:25:39;37.93;;;21.20;;
10059;SDS011;5069;49.306;8.636;2022-12-18T11:28:51;44.23;;;22.03;;
10059;SDS011;5069;49.306;8.636;2022-12-18T11:35:49;41.17;;;21.13;;
10059;SDS011;5069;49.306;8.636;2022-12-18T11:38:53;40.63;;;21.07;;
10059;SDS011;5069;49.306;8.636;2022-12-18T11:41:59;37.63;;;21.47;;
10059;SDS011;5069;49.306;8.636;2022-12-18T11:51:55;41.50;;;20.80;;
10059;SDS011;5069;49.306;8.636;2022-12-18T11:55:31;42.93;;;23.00;;
10059;SDS011;5069;49.306;8.636;2022-12-18T11:58:47;41.43;;;21.47;;
10059;SDS011;5069;49.306;8.636;2022-12-18T12:02:21;37.47;;;21.53;;
10059;SDS011;5069;49.306;8.636;2022-12-18T12:05:56;40.83;;;20.57;;
10059;SDS011;5069;49.306;8.636;2022-12-18T12:09:20;40.73;;;21.03;;
10059;SDS011;5069;49.306;8.636;2022-12-18T12:13:01;40.80;;;19.50;;
10059;SDS011;5069;49.306;8.636;2022-12-18T12:23:05;35.43;;;19.00;;
10059;SDS011;5069;49.306;8.636;2022-12-18T12:26:11;39.97;;;21.40;;
10059;SDS011;5069;49.306;8.636;2022-12-18T12:30:05;37.53;;;19.67;;
10059;SDS011;5069;49.306;8.636;2022-12-18T12:32:55;41.37;;;21.17;;
10059;SDS011;5069;49.306;8.636;2022-12-18T12:39:16;39.57;;;21.87;;
10059;SDS011;5069;49.306;8.636;2022-12-18T12:42:31;36.10;;;19.87;;
10059;SDS011;5069;49.306;8.636;2022-12-18T12:46:01;38.87;;;19.77;;
10059;SDS011;5069;49.306;8.636;2022-12-18T12:49:09;39.83;;;21.23;;
10059;SDS011;5069;49.306;8.636;2022-12-18T12:55:36;37.53;;;18.40;;
10059;SDS011;5069;49.306;8.636;2022-12-18T13:02:04;37.20;;;19.93;;
10059;SDS011;5069;49.306;8.636;2022-12-18T13:05:40;42.43;;;20.37;;
10059;SDS011;5069;49.306;8.636;2022-12-18T13:08:59;37.53;;;20.00;;
10059;SDS011;5069;49.306;8.636;2022-12-18T13:12:02;41.00;;;20.07;;
10059;SDS011;5069;49.306;8.636;2022-12-18T13:15:29;38.10;;;19.90;;
10059;SDS011;5069;49.306;8.636;2022-12-18T13:18:40;37.23;;;19.90;;
10059;SDS011;5069;49.306;8.636;2022-12-18T13:21:55;38.40;;;20.17;;
10059;SDS011;5069;49.306;8.636;2022-12-18T13:24:57;39.40;;;20.93;;
10059;SDS011;5069;49.306;8.636;2022-12-18T13:28:08;36.53;;;20.10;;
10059;SDS011;5069;49.306;8.636;2022-12-18T13:34:16;41.33;;;20.70;;
10059;SDS011;5069;49.306;8.636;2022-12-18T13:46:47;40.63;;;21.07;;
10059;SDS011;5069;49.306;8.636;2022-12-18T13:49:51;40.20;;;20.23;;
10059;SDS011;5069;49.306;8.636;2022-12-18T13:52:52;39.57;;;21.17;;
10059;SDS011;5069;49.306;8.636;2022-12-18T13:55:55;41.23;;;21.73;;
10059;SDS011;5069;49.306;8.636;2022-12-18T13:59:11;40.93;;;21.37;;
10059;SDS011;5069;49.306;8.636;2022-12-18T14:02:23;36.27;;;19.80;;
10059;SDS011;5069;49.306;8.636;2022-12-18T14:05:31;39.13;;;21.37;;
10059;SDS011;5069;49.306;8.636;2022-12-18T14:08:39;40.93;;;21.40;;
10059;SDS011;5069;49.306;8.636;2022-12-18T14:11:47;43.57;;;22.20;;
10059;SDS011;5069;49.306;8.636;2022-12-18T14:14:51;45.23;;;21.80;;
10059;SDS011;5069;49.306;8.636;2022-12-18T14:21:29;42.17;;;21.00;;
10059;SDS011;5069;49.306;8.636;2022-12-18T14:24:33;38.10;;;20.20;;
10059;SDS011;5069;49.306;8.636;2022-12-18T14:27:36;37.73;;;20.53;;
10059;SDS011;5069;49.306;8.636;2022-12-18T14:30:43;40.17;;;21.50;;
10059;SDS011;5069;49.306;8.636;2022-12-18T14:33:46;39.63;;;21.27;;
10059;SDS011;5069;49.306;8.636;2022-12-18T14:36:53;40.80;;;21.10;;
10059;SDS011;5069;49.306;8.636;2022-12-18T14:39:58;36.60;;;20.23;;
10059;SDS011;5069;49.306;8.636;2022-12-18T14:43:10;46.40;;;21.40;;
10059;SDS011;5069;49.306;8.636;2022-12-18T14:49:36;41.13;;;21.30;;
10059;SDS011;5069;49.306;8.636;2022-12-18T14:52:38;43.07;;;21.60;;
10059;SDS011;5069;49.306;8.636;2022-12-18T14:55:43;44.43;;;21.73;;
10059;SDS011;5069;49.306;8.636;2022-12-18T14:59:33;42.13;;;21.03;;
10059;SDS011;5069;49.306;8.636;2022-12-18T15:02:27;44.33;;;21.97;;
10059;SDS011;5069;49.306;8.636;2022-12-18T15:05:31;45.37;;;22.93;;
10059;SDS011;5069;49.306;8.636;2022-12-18T15:08:36;43.93;;;21.73;;
10059;SDS011;5069;49.306;8.636;2022-12-18T15:14:42;43.63;;;20.73;;
10059;SDS011;5069;49.306;8.636;2022-12-18T15:17:44;41.17;;;20.63;;
10059;SDS011;5069;49.306;8.636;2022-12-18T15:20:46;49.07;;;22.57;;
10059;SDS011;5069;49.306;8.636;2022-12-18T15:23:50;40.43;;;20.87;;
10059;SDS011;5069;49.306;8.636;2022-12-18T15:26:53;40.80;;;20.73;;
10059;SDS011;5069;49.306;8.636;2022-12-18T15:33:24;40.17;;;20.97;;
10059;SDS011;5069;49.306;8.636;2022-12-18T15:36:27;39.87;;;20.17;;
10059;SDS011;5069;49.306;8.636;2022-12-18T15:39:30;44.03;;;20.13;;
10059;SDS011;5069;49.306;8.636;2022-12-18T15:42:31;38.47;;;18.73;;
10059;SDS011;5069;49.306;8.636;2022-12-18T15:45:52;39.93;;;20.50;;
10059;SDS011;5069;49.306;8.636;2022-12-18T15:48:54;38.07;;;19.67;;
10059;SDS011;5069;49.306;8.636;2022-12-18T15:52:02;44.23;;;22.27;;
10059;SDS011;5069;49.306;8.636;2022-12-18T15:55:05;36.47;;;19.17;;
10059;SDS011;5069;49.306;8.636;2022-12-18T15:58:29;43.57;;;21.30;;
10059;SDS011;5069;49.306;8.636;2022-12-18T16:01:31;40.73;;;20.73;;
10059;SDS011;5069;49.306;8.636;2022-12-18T16:04:33;41.77;;;21.13;;
10059;SDS011;5069;49.306;8.636;2022-12-18T16:07:34;41.10;;;19.47;;
10059;SDS011;5069;49.306;8.636;2022-12-18T16:10:36;42.13;;;20.70;;
10059;SDS011;5069;49.306;8.636;2022-12-18T16:13:37;40.27;;;19.53;;
10059;SDS011;5069;49.306;8.636;2022-12-18T16:16:39;41.33;;;19.50;;
10059;SDS011;5069;49.306;8.636;2022-12-18T16:19:41;43.30;;;21.23;;
10059;SDS011;5069;49.306;8.636;2022-12-18T16:22:43;36.07;;;18.80;;
10059;SDS011;5069;49.306;8.636;2022-12-18T16:25:46;40.10;;;19.77;;
10059;SDS011;5069;49.306;8.636;2022-12-18T16:28:48;41.30;;;19.87;;
10059;SDS011;5069;49.306;8.636;2022-12-18T16:31:50;40.90;;;19.73;;
10059;SDS011;5069;49.306;8.636;2022-12-18T16:34:52;38.43;;;18.83;;
10059;SDS011;5069;49.306;8.636;2022-12-18T16:37:54;40.07;;;19.53;;
10059;SDS011;5069;49.306;8.636;2022-12-18T16:40:55;37.87;;;18.27;;
10059;SDS011;5069;49.306;8.636;2022-12-18T16:44:15;40.07;;;20.27;;
10059;SDS011;5069;49.306;8.636;2022-12-18T16:47:17;40.37;;;20.33;;
10059;SDS011;5069;49.306;8.636;2022-12-18T16:50:19;38.80;;;20.30;;
10059;SDS011;5069;49.306;8.636;2022-12-18T16:53:20;36.60;;;19.20;;
10059;SDS011;5069;49.306;8.636;2022-12-18T16:56:22;38.50;;;20.17;;
10059;SDS011;5069;49.306;8.636;2022-12-18T16:59:23;39.83;;;21.07;;
10059;SDS011;5069;49.306;8.636;2022-12-18T17:02:26;36.23;;;18.97;;
10059;SDS011;5069;49.306;8.636;2022-12-18T17:05:28;38.63;;;20.33;;
10059;SDS011;5069;49.306;8.636;2022-12-18T17:08:30;36.63;;;19.67;;
10059;SDS011;5069;49.306;8.636;2022-12-18T17:11:33;40.23;;;19.63;;
10059;SDS011;5069;49.306;8.636;2022-12-18T17:14:35;40.27;;;19.20;;
10059;SDS011;5069;49.306;8.636;2022-12-18T17:17:37;36.60;;;18.83;;
10059;SDS011;5069;49.306;8.636;2022-12-18T17:20:38;39.33;;;19.50;;
10059;SDS011;5069;49.306;8.636;2022-12-18T17:23:40;40.47;;;20.10;;
10059;SDS011;5069;49.306;8.636;2022-12-18T17:26:44;38.33;;;18.73;;
10059;SDS011;5069;49.306;8.636;2022-12-18T17:29:47;37.47;;;19.00;;
10059;SDS011;5069;49.306;8.636;2022-12-18T17:32:49;38.73;;;19.47;;
10059;SDS011;5069;49.306;8.636;2022-12-18T17:35:50;38.43;;;19.33;;
10059;SDS011;5069;49.306;8.636;2022-12-18T17:38:53;37.07;;;19.57;;
10059;SDS011;5069;49.306;8.636;2022-12-18T17:41:56;35.87;;;19.57;;
10059;SDS011;5069;49.306;8.636;2022-12-18T17:44:57;35.17;;;19.30;;
10059;SDS011;5069;49.306;8.636;2022-12-18T17:47:59;35.07;;;18.07;;
10059;SDS011;5069;49.306;8.636;2022-12-18T17:51:04;37.53;;;19.47;;
10059;SDS011;5069;49.306;8.636;2022-12-18T17:54:07;34.57;;;18.37;;
10059;SDS011;5069;49.306;8.636;2022-12-18T17:57:09;36.07;;;18.80;;
10059;SDS011;5069;49.306;8.636;2022-12-18T18:00:11;35.63;;;18.27;;
10059;SDS011;5069;49.306;8.636;2022-12-18T18:03:13;34.63;;;18.13;;
10059;SDS011;5069;49.306;8.636;2022-12-18T18:06:16;39.47;;;18.90;;
10059;SDS011;5069;49.306;8.636;2022-12-18T18:09:17;36.60;;;18.77;;
10059;SDS011;5069;49.306;8.636;2022-12-18T18:12:19;37.73;;;19.67;;
10059;SDS011;5069;49.306;8.636;2022-12-18T18:15:39;37.77;;;19.43;;
10059;SDS011;5069;49.306;8.636;2022-12-18T18:18:41;38.20;;;19.33;;
10059;SDS011;5069;49.306;8.636;2022-12-18T18:21:43;36.17;;;18.47;;
10059;SDS011;5069;49.306;8.636;2022-12-18T18:24:46;36.63;;;19.90;;
10059;SDS011;5069;49.306;8.636;2022-12-18T18:27:48;39.87;;;20.77;;
10059;SDS011;5069;49.306;8.636;2022-12-18T18:30:49;38.00;;;18.97;;
10059;SDS011;5069;49.306;8.636;2022-12-18T18:33:51;40.77;;;21.23;;
10059;SDS011;5069;49.306;8.636;2022-12-18T18:36:53;39.17;;;20.63;;
10059;SDS011;5069;49.306;8.636;2022-12-18T18:39:55;37.73;;;19.87;;
10059;SDS011;5069;49.306;8.636;2022-12-18T18:42:57;39.23;;;20.37;;
10059;SDS011;5069;49.306;8.636;2022-12-18T18:46:02;39.43;;;20.43;;
10059;SDS011;5069;49.306;8.636;2022-12-18T18:49:05;39.70;;;19.23;;
10059;SDS011;5069;49.306;8.636;2022-12-18T18:52:06;39.40;;;19.60;;
10059;SDS011;5069;49.306;8.636;2022-12-18T18:55:08;39.97;;;20.53;;
10059;SDS011;5069;49.306;8.636;2022-12-18T18:58:25;38.57;;;19.80;;
10059;SDS011;5069;49.306;8.636;2022-12-18T19:01:27;40.30;;;19.90;;
10059;SDS011;5069;49.306;8.636;2022-12-18T19:04:28;40.80;;;20.17;;
10059;SDS011;5069;49.306;8.636;2022-12-18T19:07:30;42.27;;;20.67;;
10059;SDS011;5069;49.306;8.636;2022-12-18T19:10:31;38.27;;;19.53;;
10059;SDS011;5069;49.306;8.636;2022-12-18T19:13:33;37.50;;;19.20;;
10059;SDS011;5069;49.306;8.636;2022-12-18T19:16:35;37.53;;;18.67;;
10059;SDS011;5069;49.306;8.636;2022-12-18T19:19:37;37.60;;;19.60;;
10059;SDS011;5069;49.306;8.636;2022-12-18T19:22:38;35.93;;;19.23;;
10059;SDS011;5069;49.306;8.636;2022-12-18T19:25:39;35.13;;;18.63;;
10059;SDS011;5069;49.306;8.636;2022-12-18T19:28:43;36.37;;;18.50;;
10059;SDS011;5069;49.306;8.636;2022-12-18T19:31:45;37.37;;;19.50;;
10059;SDS011;5069;49.306;8.636;2022-12-18T19:34:47;35.13;;;18.17;;
10059;SDS011;5069;49.306;8.636;2022-12-18T19:37:49;36.90;;;18.33;;
10059;SDS011;5069;49.306;8.636;2022-12-18T19:40:51;36.70;;;20.23;;
10059;SDS011;5069;49.306;8.636;2022-12-18T19:43:52;36.33;;;20.13;;
10059;SDS011;5069;49.306;8.636;2022-12-18T19:46:54;37.17;;;19.93;;